sensor_id;sensor_type;location;lat;lon;timestamp;P1;durP1;ratioP1;P2;durP2;ratioP2
56297;SDS011;42208;6.376;-10.782;2023-08-06T00:00:51;22.25;;;5.82;;
56297;SDS011;42208;6.376;-10.782;2023-08-06T00:03:20;18.33;;;6.88;;
56297;SDS011;42208;6.376;-10.782;2023-08-06T00:05:49;17.65;;;6.85;;
56297;SDS011;42208;6.376;-10.782;2023-08-06T00:08:17;18.00;;;6.45;;
56297;SDS011;42208;6.376;-10.782;2023-08-06T00:10:47;15.07;;;5.47;;
56297;SDS011;42208;6.376;-10.782;2023-08-06T00:13:16;14.93;;;5.95;;
56297;SDS011;42208;6.376;-10.782;2023-08-06T00:15:45;18.17;;;5.03;;
56297;SDS011;42208;6.376;-10.782;2023-08-06T00:21:18;15.25;;;5.30;;
56297;SDS011;42208;6.376;-10.782;2023-08-06T00:23:46;9.98;;;4.40;;
56297;SDS011;42208;6.376;-10.782;2023-08-06T00:26:15;11.00;;;3.58;;
56297;SDS011;42208;6.376;-10.782;2023-08-06T00:28:43;14.48;;;5.35;;
56297;SDS011;42208;6.376;-10.782;2023-08-06T00:31:12;15.38;;;4.68;;
56297;SDS011;42208;6.376;-10.782;2023-08-06T00:33:40;15.20;;;5.05;;
56297;SDS011;42208;6.376;-10.782;2023-08-06T00:36:09;13.73;;;5.40;;
56297;SDS011;42208;6.376;-10.782;2023-08-06T00:38:37;13.02;;;5.22;;
56297;SDS011;42208;6.376;-10.782;2023-08-06T00:41:05;19.95;;;5.78;;
56297;SDS011;42208;6.376;-10.782;2023-08-06T00:43:34;17.00;;;5.38;;
56297;SDS011;42208;6.376;-10.782;2023-08-06T00:46:02;13.68;;;5.63;;
56297;SDS011;42208;6.376;-10.782;2023-08-06T00:48:31;16.23;;;6.10;;
56297;SDS011;42208;6.376;-10.782;2023-08-06T00:51:00;18.10;;;6.35;;
56297;SDS011;42208;6.376;-10.782;2023-08-06T00:53:29;13.52;;;5.78;;
56297;SDS011;42208;6.376;-10.782;2023-08-06T00:55:57;22.27;;;6.13;;
56297;SDS011;42208;6.376;-10.782;2023-08-06T00:58:26;13.30;;;5.53;;
56297;SDS011;42208;6.376;-10.782;2023-08-06T01:00:55;14.40;;;5.07;;
56297;SDS011;42208;6.376;-10.782;2023-08-06T01:03:23;12.90;;;4.57;;
56297;SDS011;42208;6.376;-10.782;2023-08-06T01:05:52;15.88;;;4.88;;
56297;SDS011;42208;6.376;-10.782;2023-08-06T01:13:36;17.52;;;5.32;;
56297;SDS011;42208;6.376;-10.782;2023-08-06T01:16:15;25.25;;;5.68;;
56297;SDS011;42208;6.376;-10.782;2023-08-06T01:18:47;23.33;;;5.57;;
56297;SDS011;42208;6.376;-10.782;2023-08-06T01:21:16;19.75;;;6.53;;
56297;SDS011;42208;6.376;-10.782;2023-08-06T01:23:45;28.60;;;6.40;;
56297;SDS011;42208;6.376;-10.782;2023-08-06T01:26:24;20.10;;;5.88;;
56297;SDS011;42208;6.376;-10.782;2023-08-06T01:31:42;18.92;;;6.00;;
56297;SDS011;42208;6.376;-10.782;2023-08-06T01:34:17;12.98;;;4.97;;
56297;SDS011;42208;6.376;-10.782;2023-08-06T01:36:48;17.33;;;5.50;;
56297;SDS011;42208;6.376;-10.782;2023-08-06T01:39:18;25.25;;;7.38;;
56297;SDS011;42208;6.376;-10.782;2023-08-06T01:41:47;18.45;;;5.22;;
56297;SDS011;42208;6.376;-10.782;2023-08-06T01:44:16;21.30;;;5.20;;
56297;SDS011;42208;6.376;-10.782;2023-08-06T01:46:45;22.95;;;5.53;;
56297;SDS011;42208;6.376;-10.782;2023-08-06T01:49:14;18.38;;;5.80;;
56297;SDS011;42208;6.376;-10.782;2023-08-06T01:51:42;12.90;;;5.78;;
56297;SDS011;42208;6.376;-10.782;2023-08-06T01:54:10;12.82;;;5.15;;
56297;SDS011;42208;6.376;-10.782;2023-08-06T01:56:39;13.50;;;5.00;;
56297;SDS011;42208;6.376;-10.782;2023-08-06T01:59:07;15.68;;;6.00;;
56297;SDS011;42208;6.376;-10.782;2023-08-06T02:01:36;16.45;;;5.93;;
56297;SDS011;42208;6.376;-10.782;2023-08-06T02:04:04;12.52;;;5.10;;
56297;SDS011;42208;6.376;-10.782;2023-08-06T02:06:33;16.80;;;5.45;;
56297;SDS011;42208;6.376;-10.782;2023-08-06T02:09:01;18.00;;;5.97;;
56297;SDS011;42208;6.376;-10.782;2023-08-06T02:11:35;15.55;;;5.10;;
56297;SDS011;42208;6.376;-10.782;2023-08-06T02:14:04;19.13;;;6.45;;
56297;SDS011;42208;6.376;-10.782;2023-08-06T02:16:32;16.70;;;5.22;;
56297;SDS011;42208;6.376;-10.782;2023-08-06T02:19:01;15.98;;;5.32;;
56297;SDS011;42208;6.376;-10.782;2023-08-06T02:21:30;12.70;;;5.30;;
56297;SDS011;42208;6.376;-10.782;2023-08-06T02:23:58;12.88;;;5.20;;
56297;SDS011;42208;6.376;-10.782;2023-08-06T02:26:27;15.55;;;6.18;;
56297;SDS011;42208;6.376;-10.782;2023-08-06T02:28:55;16.65;;;5.55;;
56297;SDS011;42208;6.376;-10.782;2023-08-06T02:31:24;22.67;;;6.97;;
56297;SDS011;42208;6.376;-10.782;2023-08-06T02:33:52;18.02;;;7.03;;
56297;SDS011;42208;6.376;-10.782;2023-08-06T02:36:20;14.18;;;7.18;;
56297;SDS011;42208;6.376;-10.782;2023-08-06T02:38:49;19.40;;;6.55;;
56297;SDS011;42208;6.376;-10.782;2023-08-06T02:41:18;20.42;;;5.82;;
56297;SDS011;42208;6.376;-10.782;2023-08-06T02:43:48;18.20;;;5.82;;
56297;SDS011;42208;6.376;-10.782;2023-08-06T02:46:17;20.77;;;5.72;;
56297;SDS011;42208;6.376;-10.782;2023-08-06T02:48:45;20.98;;;5.78;;
56297;SDS011;42208;6.376;-10.782;2023-08-06T02:51:14;14.52;;;5.15;;
56297;SDS011;42208;6.376;-10.782;2023-08-06T02:53:42;16.52;;;5.38;;
56297;SDS011;42208;6.376;-10.782;2023-08-06T02:56:14;15.85;;;5.57;;
56297;SDS011;42208;6.376;-10.782;2023-08-06T02:59:01;15.98;;;5.95;;
56297;SDS011;42208;6.376;-10.782;2023-08-06T03:01:47;17.10;;;6.22;;
56297;SDS011;42208;6.376;-10.782;2023-08-06T03:04:24;19.77;;;6.53;;
56297;SDS011;42208;6.376;-10.782;2023-08-06T03:06:52;14.75;;;5.57;;
56297;SDS011;42208;6.376;-10.782;2023-08-06T03:09:26;23.50;;;6.30;;
56297;SDS011;42208;6.376;-10.782;2023-08-06T03:11:54;15.32;;;6.65;;
56297;SDS011;42208;6.376;-10.782;2023-08-06T03:14:23;20.38;;;7.30;;
56297;SDS011;42208;6.376;-10.782;2023-08-06T03:16:51;19.05;;;6.53;;
56297;SDS011;42208;6.376;-10.782;2023-08-06T03:19:20;19.17;;;6.78;;
56297;SDS011;42208;6.376;-10.782;2023-08-06T03:21:49;18.10;;;6.18;;
56297;SDS011;42208;6.376;-10.782;2023-08-06T03:24:18;17.67;;;6.18;;
56297;SDS011;42208;6.376;-10.782;2023-08-06T03:26:46;15.75;;;6.05;;
56297;SDS011;42208;6.376;-10.782;2023-08-06T03:29:15;22.45;;;6.15;;
56297;SDS011;42208;6.376;-10.782;2023-08-06T03:31:46;20.65;;;5.70;;
56297;SDS011;42208;6.376;-10.782;2023-08-06T03:34:16;21.52;;;5.78;;
56297;SDS011;42208;6.376;-10.782;2023-08-06T03:36:46;21.80;;;5.80;;
56297;SDS011;42208;6.376;-10.782;2023-08-06T03:39:15;26.58;;;6.03;;
56297;SDS011;42208;6.376;-10.782;2023-08-06T03:41:43;10.73;;;5.22;;
56297;SDS011;42208;6.376;-10.782;2023-08-06T03:44:12;16.85;;;5.45;;
56297;SDS011;42208;6.376;-10.782;2023-08-06T03:46:41;18.50;;;5.95;;
56297;SDS011;42208;6.376;-10.782;2023-08-06T03:51:33;16.98;;;5.07;;
56297;SDS011;42208;6.376;-10.782;2023-08-06T03:54:02;19.15;;;6.57;;
56297;SDS011;42208;6.376;-10.782;2023-08-06T03:56:31;18.55;;;5.97;;
56297;SDS011;42208;6.376;-10.782;2023-08-06T03:58:59;16.17;;;6.32;;
56297;SDS011;42208;6.376;-10.782;2023-08-06T04:01:28;12.23;;;5.47;;
56297;SDS011;42208;6.376;-10.782;2023-08-06T04:03:57;18.48;;;5.93;;
56297;SDS011;42208;6.376;-10.782;2023-08-06T04:06:25;11.25;;;5.38;;
56297;SDS011;42208;6.376;-10.782;2023-08-06T04:08:53;12.80;;;4.38;;
56297;SDS011;42208;6.376;-10.782;2023-08-06T04:11:22;16.20;;;4.90;;
56297;SDS011;42208;6.376;-10.782;2023-08-06T04:13:50;15.75;;;5.20;;
56297;SDS011;42208;6.376;-10.782;2023-08-06T04:16:19;14.60;;;5.10;;
56297;SDS011;42208;6.376;-10.782;2023-08-06T04:18:47;20.48;;;5.40;;
56297;SDS011;42208;6.376;-10.782;2023-08-06T04:21:15;18.85;;;6.05;;
56297;SDS011;42208;6.376;-10.782;2023-08-06T04:23:45;13.40;;;6.68;;
56297;SDS011;42208;6.376;-10.782;2023-08-06T04:26:14;21.52;;;8.63;;
56297;SDS011;42208;6.376;-10.782;2023-08-06T04:28:43;17.50;;;8.07;;
56297;SDS011;42208;6.376;-10.782;2023-08-06T04:31:12;13.82;;;8.07;;
56297;SDS011;42208;6.376;-10.782;2023-08-06T04:33:43;25.23;;;8.73;;
56297;SDS011;42208;6.376;-10.782;2023-08-06T04:36:14;24.50;;;8.05;;
56297;SDS011;42208;6.376;-10.782;2023-08-06T04:38:43;19.30;;;6.20;;
56297;SDS011;42208;6.376;-10.782;2023-08-06T04:41:14;15.52;;;5.50;;
56297;SDS011;42208;6.376;-10.782;2023-08-06T04:43:42;11.07;;;4.25;;
56297;SDS011;42208;6.376;-10.782;2023-08-06T04:46:11;14.50;;;5.20;;
56297;SDS011;42208;6.376;-10.782;2023-08-06T04:48:39;16.25;;;5.20;;
56297;SDS011;42208;6.376;-10.782;2023-08-06T04:51:08;15.80;;;5.30;;
56297;SDS011;42208;6.376;-10.782;2023-08-06T04:53:36;16.50;;;6.05;;
56297;SDS011;42208;6.376;-10.782;2023-08-06T04:56:04;15.38;;;5.47;;
56297;SDS011;42208;6.376;-10.782;2023-08-06T04:58:33;17.42;;;5.25;;
56297;SDS011;42208;6.376;-10.782;2023-08-06T05:01:04;17.47;;;5.33;;
56297;SDS011;42208;6.376;-10.782;2023-08-06T05:03:33;13.95;;;4.90;;
56297;SDS011;42208;6.376;-10.782;2023-08-06T05:06:01;18.13;;;6.03;;
56297;SDS011;42208;6.376;-10.782;2023-08-06T05:08:29;20.90;;;6.32;;
56297;SDS011;42208;6.376;-10.782;2023-08-06T05:10:58;16.30;;;7.20;;
56297;SDS011;42208;6.376;-10.782;2023-08-06T05:13:26;11.95;;;5.78;;
56297;SDS011;42208;6.376;-10.782;2023-08-06T05:15:54;19.45;;;7.43;;
56297;SDS011;42208;6.376;-10.782;2023-08-06T05:18:23;15.32;;;7.10;;
56297;SDS011;42208;6.376;-10.782;2023-08-06T05:20:51;16.17;;;5.93;;
56297;SDS011;42208;6.376;-10.782;2023-08-06T05:23:20;19.27;;;6.28;;
56297;SDS011;42208;6.376;-10.782;2023-08-06T05:25:48;17.23;;;5.88;;
56297;SDS011;42208;6.376;-10.782;2023-08-06T05:28:16;13.32;;;5.93;;
56297;SDS011;42208;6.376;-10.782;2023-08-06T05:30:45;18.55;;;5.53;;
56297;SDS011;42208;6.376;-10.782;2023-08-06T05:33:13;14.90;;;6.30;;
56297;SDS011;42208;6.376;-10.782;2023-08-06T05:35:41;13.77;;;5.85;;
56297;SDS011;42208;6.376;-10.782;2023-08-06T05:38:10;14.23;;;4.95;;
56297;SDS011;42208;6.376;-10.782;2023-08-06T05:40:38;16.15;;;6.75;;
56297;SDS011;42208;6.376;-10.782;2023-08-06T05:43:07;18.85;;;7.50;;
56297;SDS011;42208;6.376;-10.782;2023-08-06T05:45:36;16.15;;;7.55;;
56297;SDS011;42208;6.376;-10.782;2023-08-06T05:48:04;14.48;;;6.50;;
56297;SDS011;42208;6.376;-10.782;2023-08-06T05:50:32;21.13;;;6.55;;
56297;SDS011;42208;6.376;-10.782;2023-08-06T05:53:01;16.75;;;6.00;;
56297;SDS011;42208;6.376;-10.782;2023-08-06T05:55:29;16.35;;;6.00;;
56297;SDS011;42208;6.376;-10.782;2023-08-06T05:57:58;24.45;;;5.70;;
56297;SDS011;42208;6.376;-10.782;2023-08-06T06:00:27;22.42;;;5.93;;
56297;SDS011;42208;6.376;-10.782;2023-08-06T06:02:55;15.55;;;5.75;;
56297;SDS011;42208;6.376;-10.782;2023-08-06T06:05:24;13.07;;;5.80;;
56297;SDS011;42208;6.376;-10.782;2023-08-06T06:07:52;17.73;;;5.85;;
56297;SDS011;42208;6.376;-10.782;2023-08-06T06:10:21;17.95;;;7.30;;
56297;SDS011;42208;6.376;-10.782;2023-08-06T06:12:49;15.13;;;5.93;;
56297;SDS011;42208;6.376;-10.782;2023-08-06T06:15:18;21.08;;;6.53;;
56297;SDS011;42208;6.376;-10.782;2023-08-06T06:17:46;14.48;;;5.65;;
56297;SDS011;42208;6.376;-10.782;2023-08-06T06:20:14;16.02;;;5.97;;
56297;SDS011;42208;6.376;-10.782;2023-08-06T06:22:43;12.50;;;5.75;;
56297;SDS011;42208;6.376;-10.782;2023-08-06T06:25:11;12.98;;;5.57;;
56297;SDS011;42208;6.376;-10.782;2023-08-06T06:27:40;13.48;;;4.93;;
56297;SDS011;42208;6.376;-10.782;2023-08-06T06:30:09;15.02;;;5.60;;
56297;SDS011;42208;6.376;-10.782;2023-08-06T06:32:38;10.65;;;4.80;;
56297;SDS011;42208;6.376;-10.782;2023-08-06T06:35:06;13.32;;;4.93;;
56297;SDS011;42208;6.376;-10.782;2023-08-06T06:37:35;15.38;;;5.13;;
56297;SDS011;42208;6.376;-10.782;2023-08-06T06:40:03;11.35;;;5.03;;
56297;SDS011;42208;6.376;-10.782;2023-08-06T06:42:33;16.75;;;4.60;;
56297;SDS011;42208;6.376;-10.782;2023-08-06T06:45:04;14.30;;;5.38;;
56297;SDS011;42208;6.376;-10.782;2023-08-06T06:47:34;11.93;;;4.80;;
56297;SDS011;42208;6.376;-10.782;2023-08-06T06:50:02;15.57;;;5.45;;
56297;SDS011;42208;6.376;-10.782;2023-08-06T06:52:31;13.30;;;6.22;;
56297;SDS011;42208;6.376;-10.782;2023-08-06T06:54:59;15.45;;;6.15;;
56297;SDS011;42208;6.376;-10.782;2023-08-06T06:57:28;10.95;;;5.32;;
56297;SDS011;42208;6.376;-10.782;2023-08-06T06:59:57;14.55;;;6.65;;
56297;SDS011;42208;6.376;-10.782;2023-08-06T07:02:25;16.80;;;7.50;;
56297;SDS011;42208;6.376;-10.782;2023-08-06T07:04:57;20.02;;;6.95;;
56297;SDS011;42208;6.376;-10.782;2023-08-06T07:07:25;14.02;;;5.70;;
56297;SDS011;42208;6.376;-10.782;2023-08-06T07:09:54;15.20;;;5.90;;
56297;SDS011;42208;6.376;-10.782;2023-08-06T07:12:24;13.20;;;5.85;;
56297;SDS011;42208;6.376;-10.782;2023-08-06T07:15:01;10.07;;;5.53;;
56297;SDS011;42208;6.376;-10.782;2023-08-06T07:17:36;17.30;;;6.28;;
56297;SDS011;42208;6.376;-10.782;2023-08-06T07:20:04;28.17;;;7.75;;
56297;SDS011;42208;6.376;-10.782;2023-08-06T07:22:33;17.73;;;7.40;;
56297;SDS011;42208;6.376;-10.782;2023-08-06T07:25:02;15.02;;;6.95;;
56297;SDS011;42208;6.376;-10.782;2023-08-06T07:27:31;18.25;;;7.35;;
56297;SDS011;42208;6.376;-10.782;2023-08-06T07:30:00;18.02;;;7.50;;
56297;SDS011;42208;6.376;-10.782;2023-08-06T07:32:28;19.92;;;10.23;;
56297;SDS011;42208;6.376;-10.782;2023-08-06T07:34:57;16.95;;;8.43;;
56297;SDS011;42208;6.376;-10.782;2023-08-06T07:37:26;15.52;;;6.07;;
56297;SDS011;42208;6.376;-10.782;2023-08-06T07:39:54;15.50;;;5.03;;
56297;SDS011;42208;6.376;-10.782;2023-08-06T07:42:23;11.60;;;4.53;;
56297;SDS011;42208;6.376;-10.782;2023-08-06T07:44:55;10.48;;;4.30;;
56297;SDS011;42208;6.376;-10.782;2023-08-06T07:47:25;11.43;;;4.13;;
56297;SDS011;42208;6.376;-10.782;2023-08-06T07:49:54;9.70;;;4.45;;
56297;SDS011;42208;6.376;-10.782;2023-08-06T07:52:23;13.50;;;3.83;;
56297;SDS011;42208;6.376;-10.782;2023-08-06T07:54:51;12.07;;;4.47;;
56297;SDS011;42208;6.376;-10.782;2023-08-06T07:57:20;13.23;;;5.50;;
56297;SDS011;42208;6.376;-10.782;2023-08-06T07:59:48;13.73;;;6.35;;
56297;SDS011;42208;6.376;-10.782;2023-08-06T08:02:16;11.73;;;6.10;;
56297;SDS011;42208;6.376;-10.782;2023-08-06T08:04:45;15.57;;;6.68;;
56297;SDS011;42208;6.376;-10.782;2023-08-06T08:07:13;20.25;;;8.90;;
56297;SDS011;42208;6.376;-10.782;2023-08-06T08:09:42;19.50;;;9.27;;
56297;SDS011;42208;6.376;-10.782;2023-08-06T08:12:10;18.63;;;9.90;;
56297;SDS011;42208;6.376;-10.782;2023-08-06T08:14:39;17.73;;;9.98;;
56297;SDS011;42208;6.376;-10.782;2023-08-06T08:17:07;42.22;;;16.42;;
56297;SDS011;42208;6.376;-10.782;2023-08-06T08:19:35;32.65;;;14.50;;
56297;SDS011;42208;6.376;-10.782;2023-08-06T08:22:04;28.40;;;12.98;;
56297;SDS011;42208;6.376;-10.782;2023-08-06T08:24:32;30.67;;;12.50;;
56297;SDS011;42208;6.376;-10.782;2023-08-06T08:27:01;23.35;;;9.02;;
56297;SDS011;42208;6.376;-10.782;2023-08-06T08:29:29;15.05;;;6.03;;
56297;SDS011;42208;6.376;-10.782;2023-08-06T08:31:58;16.40;;;6.43;;
56297;SDS011;42208;6.376;-10.782;2023-08-06T08:34:26;13.05;;;5.60;;
56297;SDS011;42208;6.376;-10.782;2023-08-06T08:36:55;13.18;;;6.70;;
56297;SDS011;42208;6.376;-10.782;2023-08-06T08:39:23;18.38;;;6.72;;
56297;SDS011;42208;6.376;-10.782;2023-08-06T08:41:52;17.27;;;5.93;;
56297;SDS011;42208;6.376;-10.782;2023-08-06T08:44:21;16.52;;;6.35;;
56297;SDS011;42208;6.376;-10.782;2023-08-06T08:46:49;18.05;;;7.65;;
56297;SDS011;42208;6.376;-10.782;2023-08-06T08:49:18;17.40;;;7.38;;
56297;SDS011;42208;6.376;-10.782;2023-08-06T08:51:49;23.63;;;7.22;;
56297;SDS011;42208;6.376;-10.782;2023-08-06T08:54:22;17.67;;;7.03;;
56297;SDS011;42208;6.376;-10.782;2023-08-06T08:56:51;17.60;;;6.93;;
56297;SDS011;42208;6.376;-10.782;2023-08-06T08:59:20;19.65;;;7.28;;
56297;SDS011;42208;6.376;-10.782;2023-08-06T09:01:48;21.08;;;7.70;;
56297;SDS011;42208;6.376;-10.782;2023-08-06T09:04:18;18.90;;;8.02;;
56297;SDS011;42208;6.376;-10.782;2023-08-06T09:06:50;19.05;;;7.10;;
56297;SDS011;42208;6.376;-10.782;2023-08-06T09:09:22;19.65;;;6.75;;
56297;SDS011;42208;6.376;-10.782;2023-08-06T09:11:57;21.00;;;7.88;;
56297;SDS011;42208;6.376;-10.782;2023-08-06T09:14:28;18.13;;;7.93;;
56297;SDS011;42208;6.376;-10.782;2023-08-06T09:16:57;16.30;;;6.75;;
56297;SDS011;42208;6.376;-10.782;2023-08-06T09:19:26;23.83;;;7.65;;
56297;SDS011;42208;6.376;-10.782;2023-08-06T09:21:55;15.73;;;6.57;;
56297;SDS011;42208;6.376;-10.782;2023-08-06T09:24:24;21.98;;;6.72;;
56297;SDS011;42208;6.376;-10.782;2023-08-06T09:26:53;16.17;;;6.18;;
56297;SDS011;42208;6.376;-10.782;2023-08-06T09:29:21;17.95;;;7.07;;
56297;SDS011;42208;6.376;-10.782;2023-08-06T09:31:50;16.23;;;6.38;;
56297;SDS011;42208;6.376;-10.782;2023-08-06T09:34:20;16.45;;;6.22;;
56297;SDS011;42208;6.376;-10.782;2023-08-06T09:36:50;19.63;;;6.63;;
56297;SDS011;42208;6.376;-10.782;2023-08-06T09:39:20;18.27;;;7.43;;
56297;SDS011;42208;6.376;-10.782;2023-08-06T09:41:57;20.35;;;6.80;;
56297;SDS011;42208;6.376;-10.782;2023-08-06T09:44:27;24.13;;;8.65;;
56297;SDS011;42208;6.376;-10.782;2023-08-06T09:46:59;24.27;;;7.30;;
56297;SDS011;42208;6.376;-10.782;2023-08-06T09:52:12;18.77;;;8.45;;
56297;SDS011;42208;6.376;-10.782;2023-08-06T09:54:42;15.30;;;6.53;;
56297;SDS011;42208;6.376;-10.782;2023-08-06T09:57:12;19.67;;;7.38;;
56297;SDS011;42208;6.376;-10.782;2023-08-06T09:59:42;15.38;;;5.72;;
56297;SDS011;42208;6.376;-10.782;2023-08-06T10:02:12;18.98;;;7.07;;
56297;SDS011;42208;6.376;-10.782;2023-08-06T10:04:42;20.33;;;5.72;;
56297;SDS011;42208;6.376;-10.782;2023-08-06T10:07:21;13.60;;;5.75;;
56297;SDS011;42208;6.376;-10.782;2023-08-06T10:09:50;14.88;;;6.15;;
56297;SDS011;42208;6.376;-10.782;2023-08-06T10:12:18;20.02;;;4.90;;
56297;SDS011;42208;6.376;-10.782;2023-08-06T10:14:47;17.27;;;4.72;;
56297;SDS011;42208;6.376;-10.782;2023-08-06T10:17:17;16.40;;;4.75;;
56297;SDS011;42208;6.376;-10.782;2023-08-06T10:19:46;13.38;;;4.93;;
56297;SDS011;42208;6.376;-10.782;2023-08-06T10:22:16;15.10;;;5.03;;
56297;SDS011;42208;6.376;-10.782;2023-08-06T10:24:49;15.80;;;5.97;;
56297;SDS011;42208;6.376;-10.782;2023-08-06T10:30:31;11.80;;;4.25;;
56297;SDS011;42208;6.376;-10.782;2023-08-06T10:33:01;9.43;;;4.35;;
56297;SDS011;42208;6.376;-10.782;2023-08-06T10:35:49;12.88;;;4.50;;
56297;SDS011;42208;6.376;-10.782;2023-08-06T10:38:19;15.63;;;5.13;;
56297;SDS011;42208;6.376;-10.782;2023-08-06T10:40:50;14.90;;;5.07;;
56297;SDS011;42208;6.376;-10.782;2023-08-06T10:43:25;15.05;;;5.75;;
56297;SDS011;42208;6.376;-10.782;2023-08-06T10:45:58;14.25;;;4.97;;
56297;SDS011;42208;6.376;-10.782;2023-08-06T10:48:29;15.75;;;5.03;;
56297;SDS011;42208;6.376;-10.782;2023-08-06T10:51:09;14.93;;;4.43;;
56297;SDS011;42208;6.376;-10.782;2023-08-06T10:53:42;10.70;;;4.22;;
56297;SDS011;42208;6.376;-10.782;2023-08-06T10:56:13;11.65;;;4.72;;
56297;SDS011;42208;6.376;-10.782;2023-08-06T10:58:41;18.88;;;5.88;;
56297;SDS011;42208;6.376;-10.782;2023-08-06T11:01:12;17.50;;;5.72;;
56297;SDS011;42208;6.376;-10.782;2023-08-06T11:03:41;10.75;;;4.95;;
56297;SDS011;42208;6.376;-10.782;2023-08-06T11:06:11;11.43;;;4.18;;
56297;SDS011;42208;6.376;-10.782;2023-08-06T11:08:49;11.82;;;4.25;;
56297;SDS011;42208;6.376;-10.782;2023-08-06T11:11:20;14.98;;;4.57;;
56297;SDS011;42208;6.376;-10.782;2023-08-06T11:13:51;12.40;;;5.05;;
56297;SDS011;42208;6.376;-10.782;2023-08-06T11:16:23;10.85;;;4.15;;
56297;SDS011;42208;6.376;-10.782;2023-08-06T11:18:52;10.57;;;3.53;;
56297;SDS011;42208;6.376;-10.782;2023-08-06T11:21:21;13.38;;;4.30;;
56297;SDS011;42208;6.376;-10.782;2023-08-06T11:23:51;12.38;;;5.20;;
56297;SDS011;42208;6.376;-10.782;2023-08-06T11:26:21;9.45;;;4.32;;
56297;SDS011;42208;6.376;-10.782;2023-08-06T11:28:50;11.55;;;5.30;;
56297;SDS011;42208;6.376;-10.782;2023-08-06T11:31:24;17.00;;;6.63;;
56297;SDS011;42208;6.376;-10.782;2023-08-06T11:34:01;29.80;;;10.43;;
56297;SDS011;42208;6.376;-10.782;2023-08-06T11:36:30;18.73;;;7.40;;
56297;SDS011;42208;6.376;-10.782;2023-08-06T11:39:00;14.70;;;4.72;;
56297;SDS011;42208;6.376;-10.782;2023-08-06T11:41:30;8.13;;;3.75;;
56297;SDS011;42208;6.376;-10.782;2023-08-06T11:43:59;12.35;;;4.22;;
56297;SDS011;42208;6.376;-10.782;2023-08-06T11:46:28;6.88;;;3.60;;
56297;SDS011;42208;6.376;-10.782;2023-08-06T11:48:58;14.32;;;4.03;;
56297;SDS011;42208;6.376;-10.782;2023-08-06T11:51:27;10.88;;;4.97;;
56297;SDS011;42208;6.376;-10.782;2023-08-06T11:53:56;8.35;;;3.90;;
56297;SDS011;42208;6.376;-10.782;2023-08-06T11:56:26;16.80;;;4.90;;
56297;SDS011;42208;6.376;-10.782;2023-08-06T11:58:55;22.85;;;7.95;;
56297;SDS011;42208;6.376;-10.782;2023-08-06T12:01:25;21.45;;;11.18;;
56297;SDS011;42208;6.376;-10.782;2023-08-06T12:03:58;33.50;;;16.63;;
56297;SDS011;42208;6.376;-10.782;2023-08-06T12:06:27;17.63;;;6.70;;
56297;SDS011;42208;6.376;-10.782;2023-08-06T12:08:55;14.52;;;8.00;;
56297;SDS011;42208;6.376;-10.782;2023-08-06T12:11:24;12.27;;;5.53;;
56297;SDS011;42208;6.376;-10.782;2023-08-06T12:13:54;17.85;;;3.13;;
56297;SDS011;42208;6.376;-10.782;2023-08-06T12:16:22;12.43;;;4.40;;
56297;SDS011;42208;6.376;-10.782;2023-08-06T12:18:51;11.63;;;3.83;;
56297;SDS011;42208;6.376;-10.782;2023-08-06T12:21:20;14.05;;;4.47;;
56297;SDS011;42208;6.376;-10.782;2023-08-06T12:23:48;14.25;;;4.00;;
56297;SDS011;42208;6.376;-10.782;2023-08-06T12:26:17;16.27;;;4.22;;
56297;SDS011;42208;6.376;-10.782;2023-08-06T12:28:46;19.92;;;6.00;;
56297;SDS011;42208;6.376;-10.782;2023-08-06T12:31:14;14.45;;;7.05;;
56297;SDS011;42208;6.376;-10.782;2023-08-06T12:33:43;15.43;;;6.28;;
56297;SDS011;42208;6.376;-10.782;2023-08-06T12:36:11;16.15;;;4.78;;
56297;SDS011;42208;6.376;-10.782;2023-08-06T12:38:41;10.40;;;4.07;;
56297;SDS011;42208;6.376;-10.782;2023-08-06T12:41:09;11.73;;;6.45;;
56297;SDS011;42208;6.376;-10.782;2023-08-06T12:43:41;14.85;;;6.38;;
56297;SDS011;42208;6.376;-10.782;2023-08-06T12:46:11;12.98;;;6.05;;
56297;SDS011;42208;6.376;-10.782;2023-08-06T12:48:40;13.30;;;4.38;;
56297;SDS011;42208;6.376;-10.782;2023-08-06T12:51:11;12.00;;;4.57;;
56297;SDS011;42208;6.376;-10.782;2023-08-06T12:53:43;16.40;;;4.10;;
56297;SDS011;42208;6.376;-10.782;2023-08-06T12:56:11;16.17;;;6.45;;
56297;SDS011;42208;6.376;-10.782;2023-08-06T12:58:40;16.02;;;6.70;;
56297;SDS011;42208;6.376;-10.782;2023-08-06T13:01:09;15.43;;;4.72;;
56297;SDS011;42208;6.376;-10.782;2023-08-06T13:03:37;15.27;;;4.93;;
56297;SDS011;42208;6.376;-10.782;2023-08-06T13:06:06;10.25;;;3.47;;
56297;SDS011;42208;6.376;-10.782;2023-08-06T13:08:36;6.15;;;3.60;;
56297;SDS011;42208;6.376;-10.782;2023-08-06T13:11:04;10.20;;;3.72;;
56297;SDS011;42208;6.376;-10.782;2023-08-06T13:13:33;7.88;;;3.83;;
56297;SDS011;42208;6.376;-10.782;2023-08-06T13:16:01;12.73;;;3.63;;
56297;SDS011;42208;6.376;-10.782;2023-08-06T13:18:30;11.68;;;3.67;;
56297;SDS011;42208;6.376;-10.782;2023-08-06T13:20:59;11.00;;;4.07;;
56297;SDS011;42208;6.376;-10.782;2023-08-06T13:23:27;12.13;;;3.88;;
56297;SDS011;42208;6.376;-10.782;2023-08-06T13:25:55;16.90;;;4.60;;
56297;SDS011;42208;6.376;-10.782;2023-08-06T13:28:24;9.68;;;4.00;;
56297;SDS011;42208;6.376;-10.782;2023-08-06T13:30:52;10.75;;;4.15;;
56297;SDS011;42208;6.376;-10.782;2023-08-06T13:33:21;14.88;;;4.68;;
56297;SDS011;42208;6.376;-10.782;2023-08-06T13:35:52;14.52;;;4.10;;
56297;SDS011;42208;6.376;-10.782;2023-08-06T13:38:21;14.00;;;4.13;;
56297;SDS011;42208;6.376;-10.782;2023-08-06T13:40:49;11.10;;;3.63;;
56297;SDS011;42208;6.376;-10.782;2023-08-06T13:43:18;11.75;;;4.03;;
56297;SDS011;42208;6.376;-10.782;2023-08-06T13:45:46;13.20;;;4.35;;
56297;SDS011;42208;6.376;-10.782;2023-08-06T13:48:15;12.13;;;3.63;;
56297;SDS011;42208;6.376;-10.782;2023-08-06T13:50:43;10.73;;;3.80;;
56297;SDS011;42208;6.376;-10.782;2023-08-06T13:53:12;13.45;;;3.95;;
56297;SDS011;42208;6.376;-10.782;2023-08-06T13:55:41;12.65;;;3.90;;
56297;SDS011;42208;6.376;-10.782;2023-08-06T13:58:09;12.23;;;3.85;;
56297;SDS011;42208;6.376;-10.782;2023-08-06T14:00:38;14.55;;;4.43;;
56297;SDS011;42208;6.376;-10.782;2023-08-06T14:03:06;10.30;;;3.83;;
56297;SDS011;42208;6.376;-10.782;2023-08-06T14:05:35;13.43;;;4.10;;
56297;SDS011;42208;6.376;-10.782;2023-08-06T14:08:04;13.38;;;4.43;;
56297;SDS011;42208;6.376;-10.782;2023-08-06T14:10:32;12.43;;;3.58;;
56297;SDS011;42208;6.376;-10.782;2023-08-06T14:13:01;13.48;;;5.88;;
56297;SDS011;42208;6.376;-10.782;2023-08-06T14:15:37;36.70;;;20.55;;
56297;SDS011;42208;6.376;-10.782;2023-08-06T14:18:08;18.02;;;6.90;;
56297;SDS011;42208;6.376;-10.782;2023-08-06T14:20:37;11.45;;;4.30;;
56297;SDS011;42208;6.376;-10.782;2023-08-06T14:23:06;16.35;;;4.28;;
56297;SDS011;42208;6.376;-10.782;2023-08-06T14:25:35;16.17;;;4.38;;
56297;SDS011;42208;6.376;-10.782;2023-08-06T14:28:04;12.90;;;4.85;;
56297;SDS011;42208;6.376;-10.782;2023-08-06T14:30:33;15.05;;;4.93;;
56297;SDS011;42208;6.376;-10.782;2023-08-06T14:33:02;11.00;;;3.88;;
56297;SDS011;42208;6.376;-10.782;2023-08-06T14:35:50;14.05;;;4.50;;
56297;SDS011;42208;6.376;-10.782;2023-08-06T14:38:19;19.38;;;5.00;;
56297;SDS011;42208;6.376;-10.782;2023-08-06T14:40:49;15.75;;;4.55;;
56297;SDS011;42208;6.376;-10.782;2023-08-06T14:43:18;8.88;;;4.35;;
56297;SDS011;42208;6.376;-10.782;2023-08-06T14:45:47;12.10;;;4.30;;
56297;SDS011;42208;6.376;-10.782;2023-08-06T14:48:24;12.55;;;3.95;;
56297;SDS011;42208;6.376;-10.782;2023-08-06T14:50:57;8.50;;;4.13;;
56297;SDS011;42208;6.376;-10.782;2023-08-06T14:53:25;11.13;;;3.70;;